White Plains, NY

8:55 PM EDT on August 22, 2014 (GMT -0400)
Southern White Plains | Change Station
CLOSE
Current Station
Personal Weather Station
Location: White Plains, NY
Elevation: 220 ft
Nearby Weather Stations

Elev 220 ft 41.00 °N, 73.74 °W | Updated 3 minutes ago

Mostly Cloudy
Mostly Cloudy
69.3 °F
Feels Like 69.3 °F
N
1.0
Wind Variable Wind from WNW
Gusts 4.0 mph

Today
High -- | Low -- °F
--% Chance of Precip.
Yesterday
High -- | Low -- °F
Precip. -- in
6:11 AM 7:43 PM
Waning Crescent, 6% visible
Pressure 30.04 in
Visibility 10.0 miles
Clouds Mostly Cloudy 4500 ft
Mostly Cloudy 7000 ft
Dew Point 63 °F
Humidity 80%
Rainfall 0.07 in
Snow Depth Not available.
UV 0 out of 12
Pollen 5.90 out of 12
PM2.5 Good
Flu Activity Not available.
METAR KHPN 222356Z 08005KT 10SM BKN045 BKN070 21/16 A3005 RMK AO2 SLP172 T02060161 10244 20206 51006

More Conditions Fewer Conditions

Pressure 30.04 in
Visibility 10.0 miles
Clouds Mostly Cloudy 4500 ft
Mostly Cloudy 7000 ft
Dew Point 63 °F
Humidity 80%
Rainfall 0.07 in
Snow Depth Not available.
UV 0 out of 12
Pollen 5.90 out of 12
PM2.5 Good
Flu Activity Not available.
METAR KHPN 222356Z 08005KT 10SM BKN045 BKN070 21/16 A3005 RMK AO2 SLP172 T02060161 10244 20206 51006

More Conditions Fewer Conditions

10-Day Weather Forecast

Almanac

Astronomy

Aug. 22, 2014 Rise Set
Actual Time 6:11 AM EDT 7:43 PM EDT
Civil Twilight 5:42 AM EDT 8:12 PM EDT
Nautical Twilight 5:07 AM EDT 8:47 PM EDT
Astronomical Twilight 4:30 AM EDT 9:23 PM EDT
Moon 3:31 AM EDT (8/22) 5:50 PM EDT (8/22)
Length of Visible Light 14h 29m
Length of Day
13h 31m
Tomorrow will be 2m 31s shorter.
Waning Crescent, 6% of the Moon is Illuminated
Today
Waning Crescent
Aug 25
New
Sep 2
First Quarter
Sep 8
Full
Sep 15
Last Quarter

Today's Extremes

State Highs State Lows

Community

WunderPhotos

Upload Photos

1,746,326 photos uploaded!

WunderBlogs® & News

Nearby

Air Quality

  Air Quality AQ Index Pollutant
Yesterday Good
OZONE
Yesterday Good
PM2.5
Current Good
PM2.5
Friday Good
OZONE
Friday Good
PM2.5
Saturday Good
OZONE
Saturday Good
PM2.5
Sunday Good
OZONE
Sunday Good
PM2.5
Monday Good
OZONE
Monday Good
PM2.5

Snow Depth

Station Depth Elevation
No new snow has been reported.

Earthquake Activity

City Distance Mag. Time & Date
No recent earthquake activity has been reported nearby.
Minimum magnitude displayed is 2.5.

Coastal Water Temperatures

Place Temperature
Bridgeport, CT 75.0 °F

Nearby Weather Stations